Mondercange, Luxembourg
Current Conditions -  °F | °C
As of 7:50 AM on Friday 28 Nov 2014 (Local Time) from ELLX Reporting Station
Clear Clear  
Wind Chill: 34°   Ceiling: Unl
Heat Index: 39°   Visibility: 2.8mi
Dew Point: 39°   Wind: 7mph
Humidity: 100%   Direction: 60°ENE
Pressure: 29.71"   Gusts: NA
Location:  49.53°N, 5.99°E
Report Text: ELLX 280650Z 06006KT 040V100 4500 NSC 04/04 Q1006 BECMG 7000
Loading
Personal Weather Stations






























Interactive Weather Map New forecast layout! Learn more

10-Day Weather Forecast

Advertisements
Track Severe Weather on mobile